CheckWX is a tool to help pilots better visualize weather data.  It is not intended as a substitute for an official pre-flight weather briefing.

08:14:23 UTC

KANE METAR
Anoka County-Blaine (Janes Field) Airport
Minneapolis, Minnesota, USA
Current

19 mins ago

KANE 210755Z AUTO 14005KT 10SM CLR M17/M19 A3049 RMK AO2
Observed
Jan-21 @ 07:55 UTC
Wind
  • 140° at 5 KTS
Visibility
10 SM
Flight Rules
VFR
Cloud Levels
  • Clear skies
Temperature
-17°C / 1°F
Dewpoint
-19°C / -2°F
Humidity
85%
Altimeter
30.49" Hg
Pressure
1032.52 hPa
Previous

39 mins ago

KANE 210735Z AUTO 00000KT 10SM CLR M17/M19 A3051 RMK AO2
Observed
Jan-21 @ 07:35 UTC
Visibility
10 SM
Flight Rules
VFR
Cloud Levels
  • Clear skies
Temperature
-17°C / 1°F
Dewpoint
-19°C / -2°F
Humidity
85%
Altimeter
30.51" Hg
Pressure
1033.22 hPa
Previous

59 mins ago

KANE 210715Z AUTO 00000KT 10SM CLR M17/M19 A3052 RMK AO2
Observed
Jan-21 @ 07:15 UTC
Visibility
10 SM
Flight Rules
VFR
Cloud Levels
  • Clear skies
Temperature
-17°C / 1°F
Dewpoint
-19°C / -2°F
Humidity
85%
Altimeter
30.52" Hg
Pressure
1033.52 hPa